createdAt,value
2016-08-20T00:00:09.140Z,0
2016-08-20T00:01:10.504Z,0
2016-08-20T00:02:10.480Z,0
2016-08-20T00:03:09.742Z,0
2016-08-20T00:04:11.129Z,0
2016-08-20T00:05:11.072Z,0
2016-08-20T00:06:10.344Z,0
2016-08-20T00:07:10.317Z,0
2016-08-20T00:08:09.586Z,0
2016-08-20T00:09:10.256Z,0
2016-08-20T00:10:10.920Z,0
2016-08-20T00:11:09.506Z,0
2016-08-20T00:12:10.867Z,0
2016-08-20T00:13:10.824Z,0
2016-08-20T00:14:08.723Z,0
2016-08-20T00:15:10.762Z,0
2016-08-20T00:16:10.744Z,0
2016-08-20T00:17:10.704Z,0
2016-08-20T00:18:10.687Z,0
2016-08-20T00:19:10.644Z,0
2016-08-20T00:20:09.925Z,0
2016-08-20T00:21:10.582Z,0
2016-08-20T00:22:10.599Z,0
2016-08-20T00:23:09.127Z,0
2016-08-20T00:24:10.509Z,0
2016-08-20T00:25:10.460Z,0
2016-08-20T00:26:09.026Z,0
2016-08-20T00:27:10.404Z,0
2016-08-20T00:28:10.369Z,0
2016-08-20T00:29:09.639Z,0
2016-08-20T00:30:10.308Z,0
2016-08-20T00:31:08.871Z,0
2016-08-20T00:32:08.855Z,0
2016-08-20T00:33:10.213Z,0
2016-08-20T00:34:09.491Z,0
2016-08-20T00:35:10.154Z,0
2016-08-20T00:36:10.113Z,0
2016-08-20T00:37:10.090Z,0
2016-08-20T00:38:08.665Z,0
2016-08-20T00:39:09.333Z,0
2016-08-20T00:40:09.304Z,0
2016-08-20T00:41:08.570Z,0
2016-08-20T00:42:08.539Z,0
2016-08-20T00:43:09.906Z,0
2016-08-20T00:44:09.176Z,0
2016-08-20T00:45:09.841Z,0
2016-08-20T00:46:09.113Z,0
2016-08-20T00:47:08.389Z,0
2016-08-20T00:48:09.052Z,0
2016-08-20T00:49:09.716Z,0
2016-08-20T00:50:08.293Z,0
2016-08-20T00:51:08.960Z,0
2016-08-20T00:52:08.231Z,0
2016-08-20T00:53:09.600Z,0
2016-08-20T00:54:08.173Z,0
2016-08-20T00:55:09.533Z,0
2016-08-20T00:56:09.505Z,0
2016-08-20T00:57:08.798Z,0
2016-08-20T00:58:09.438Z,0
2016-08-20T00:59:09.415Z,0
2016-08-20T01:00:09.381Z,0
2016-08-20T01:01:07.951Z,0
2016-08-20T01:02:09.316Z,0
2016-08-20T01:03:08.588Z,0
2016-08-20T01:04:09.260Z,0
2016-08-20T01:05:09.227Z,0
2016-08-20T01:06:09.195Z,0
2016-08-20T01:07:09.160Z,0
2016-08-20T01:08:07.751Z,0
2016-08-20T01:09:07.719Z,0
2016-08-20T01:10:09.071Z,0
2016-08-20T01:11:09.043Z,0
2016-08-20T01:12:07.624Z,0
2016-08-20T01:13:08.288Z,0
2016-08-20T01:14:08.251Z,0
2016-08-20T01:15:08.919Z,0
2016-08-20T01:16:08.183Z,0
2016-08-20T01:17:07.466Z,0
2016-08-20T01:18:08.132Z,0
2016-08-20T01:19:08.100Z,0
2016-08-20T01:20:08.070Z,0
2016-08-20T01:21:08.031Z,0
2016-08-20T01:22:08.708Z,0
2016-08-20T01:23:07.973Z,0
2016-08-20T01:24:07.246Z,0
2016-08-20T01:25:08.608Z,0
2016-08-20T01:26:08.576Z,0
2016-08-20T01:27:06.456Z,0
2016-08-20T01:28:07.823Z,0
2016-08-20T01:29:08.491Z,0
2016-08-20T01:30:07.757Z,0
2016-08-20T01:31:07.038Z,0
2016-08-20T01:32:07.700Z,0
2016-08-20T01:33:06.984Z,0
2016-08-20T01:34:08.335Z,0
2016-08-20T01:35:08.308Z,0
2016-08-20T01:36:08.267Z,0
2016-08-20T01:37:07.546Z,0
2016-08-20T01:38:07.516Z,0
2016-08-20T01:39:07.487Z,0
2016-08-20T01:40:07.456Z,0
2016-08-20T01:41:07.422Z,0
2016-08-20T01:42:06.703Z,0
2016-08-20T01:43:07.371Z,0
2016-08-20T01:44:06.649Z,0
2016-08-20T01:45:06.606Z,0
2016-08-20T01:46:07.263Z,0
2016-08-20T01:47:07.934Z,0
2016-08-20T01:48:06.514Z,0
2016-08-20T01:49:07.179Z,0
2016-08-20T01:50:07.852Z,0
2016-08-20T01:51:07.112Z,0
2016-08-20T01:52:07.783Z,0
2016-08-20T01:53:07.749Z,0
2016-08-20T01:54:06.329Z,0
2016-08-20T01:55:06.990Z,0
2016-08-20T01:56:06.260Z,0
2016-08-20T01:57:06.933Z,0
2016-08-20T01:58:06.207Z,0
2016-08-20T01:59:07.572Z,0
2016-08-20T02:00:06.836Z,0
2016-08-20T02:01:06.812Z,0
2016-08-20T02:02:07.477Z,0
2016-08-20T02:03:06.744Z,0
2016-08-20T02:04:06.017Z,0
2016-08-20T02:05:07.377Z,0
2016-08-20T02:06:05.958Z,0
2016-08-20T02:07:07.320Z,0
2016-08-20T02:08:05.896Z,0
2016-08-20T02:09:05.869Z,0
2016-08-20T02:10:07.231Z,0
2016-08-20T02:11:06.494Z,0
2016-08-20T02:12:06.468Z,0
2016-08-20T02:13:06.445Z,0
2016-08-20T02:14:05.714Z,0
2016-08-20T02:15:06.385Z,0
2016-08-20T02:16:05.648Z,0
2016-08-20T02:17:07.016Z,0
2016-08-20T02:18:06.289Z,0
2016-08-20T02:19:04.867Z,0
2016-08-20T02:20:06.923Z,0
2016-08-20T02:21:05.493Z,0
2016-08-20T02:22:06.177Z,0
2016-08-20T02:23:06.826Z,0
2016-08-20T02:24:06.104Z,0
2016-08-20T02:25:05.370Z,0
2016-08-20T02:26:06.735Z,0
2016-08-20T02:27:06.707Z,0
2016-08-20T02:28:05.283Z,0
2016-08-20T02:29:05.947Z,0
2016-08-20T02:30:06.617Z,0
2016-08-20T02:31:06.588Z,0
2016-08-20T02:32:05.167Z,0
2016-08-20T02:33:06.528Z,0
2016-08-20T02:34:05.792Z,0
2016-08-20T02:35:06.459Z,0
2016-08-20T02:36:05.029Z,0
2016-08-20T02:37:05.714Z,0
2016-08-20T02:38:05.667Z,0
2016-08-20T02:39:04.941Z,0
2016-08-20T02:40:05.622Z,0
2016-08-20T02:41:04.876Z,0
2016-08-20T02:42:05.547Z,0
2016-08-20T02:43:05.519Z,0
2016-08-20T02:44:05.493Z,0
2016-08-20T02:45:05.465Z,0
2016-08-20T02:46:06.173Z,0
2016-08-20T02:47:05.394Z,0
2016-08-20T02:48:04.663Z,0
2016-08-20T02:49:05.353Z,0
2016-08-20T02:50:04.604Z,0
2016-08-20T02:51:05.263Z,0
2016-08-20T02:52:05.235Z,0
2016-08-20T02:53:05.904Z,0
2016-08-20T02:54:05.173Z,0
2016-08-20T02:55:05.144Z,0
2016-08-20T02:56:05.113Z,0
2016-08-20T02:57:04.383Z,0
2016-08-20T02:58:05.743Z,0
2016-08-20T02:59:05.023Z,0
2016-08-20T03:00:04.287Z,0
2016-08-20T03:01:04.272Z,0
2016-08-20T03:02:05.638Z,0
2016-08-20T03:03:05.589Z,0
2016-08-20T03:04:05.565Z,0
2016-08-20T03:05:05.538Z,0
2016-08-20T03:06:03.407Z,0
2016-08-20T03:07:04.783Z,0
2016-08-20T03:08:04.757Z,0
2016-08-20T03:09:04.709Z,0
2016-08-20T03:10:04.684Z,0
2016-08-20T03:11:03.944Z,0
2016-08-20T03:12:05.314Z,0
2016-08-20T03:13:04.588Z,0
2016-08-20T03:14:03.865Z,0
2016-08-20T03:15:03.842Z,0
2016-08-20T03:16:05.185Z,0
2016-08-20T03:17:05.175Z,0
2016-08-20T03:18:04.442Z,0
2016-08-20T03:19:04.411Z,0
2016-08-20T03:20:05.075Z,0
2016-08-20T03:21:04.341Z,0
2016-08-20T03:22:04.333Z,0
2016-08-20T03:23:03.581Z,0
2016-08-20T03:24:03.557Z,0
2016-08-20T03:25:04.225Z,0
2016-08-20T03:26:04.181Z,0
2016-08-20T03:27:03.463Z,0
2016-08-20T03:28:04.129Z,0
2016-08-20T03:29:04.098Z,0
2016-08-20T03:30:04.765Z,0
2016-08-20T03:31:04.722Z,0
2016-08-20T03:32:03.303Z,0
2016-08-20T03:33:03.274Z,0
2016-08-20T03:34:04.634Z,0
2016-08-20T03:35:03.219Z,0
2016-08-20T03:36:04.565Z,0
2016-08-20T03:37:04.540Z,0
2016-08-20T03:38:03.817Z,0
2016-08-20T03:39:03.084Z,0
2016-08-20T03:40:04.454Z,0
2016-08-20T03:41:03.728Z,0
2016-08-20T03:42:03.692Z,0
2016-08-20T03:43:02.969Z,0
2016-08-20T03:44:03.635Z,0
2016-08-20T03:45:02.903Z,0
2016-08-20T03:46:04.256Z,0
2016-08-20T03:47:03.552Z,0
2016-08-20T03:48:04.202Z,0
2016-08-20T03:49:02.094Z,0
2016-08-20T03:50:04.145Z,0
2016-08-20T03:51:03.407Z,0
2016-08-20T03:52:03.382Z,0
2016-08-20T03:53:02.650Z,0
2016-08-20T03:54:02.622Z,0
2016-08-20T03:55:02.595Z,0
2016-08-20T03:56:03.262Z,0
2016-08-20T03:57:03.225Z,0
2016-08-20T03:58:03.193Z,0
2016-08-20T03:59:03.157Z,0
2016-08-20T04:00:02.445Z,0
2016-08-20T04:01:03.097Z,0
2016-08-20T04:02:03.082Z,0
2016-08-20T04:03:17.248Z,0
2016-08-20T04:04:01.615Z,0
2016-08-20T04:05:02.985Z,0
2016-08-20T04:06:02.956Z,0
2016-08-20T04:07:02.921Z,0
2016-08-20T04:08:02.883Z,0
2016-08-20T04:09:01.473Z,0
2016-08-20T04:10:02.837Z,0
2016-08-20T04:11:02.096Z,0
2016-08-20T04:12:02.765Z,0
2016-08-20T04:13:03.432Z,0
2016-08-20T04:14:02.698Z,0
2016-08-20T04:15:01.982Z,0
2016-08-20T04:16:01.940Z,0
2016-08-20T04:17:02.615Z,0
2016-08-20T04:18:03.268Z,0
2016-08-20T04:19:03.238Z,0
2016-08-20T04:20:02.502Z,0
2016-08-20T04:21:02.489Z,0
2016-08-20T04:22:02.457Z,0
2016-08-20T04:23:03.114Z,0
2016-08-20T04:24:02.390Z,0
2016-08-20T04:25:02.354Z,5
2016-08-20T04:26:01.628Z,5
2016-08-20T04:27:01.596Z,5
2016-08-20T04:28:02.953Z,5
2016-08-20T04:29:02.239Z,5
2016-08-20T04:30:02.206Z,5
2016-08-20T04:31:01.474Z,5
2016-08-20T04:32:00.748Z,10
2016-08-20T04:33:02.103Z,10
2016-08-20T04:34:01.387Z,10
2016-08-20T04:35:02.051Z,15
2016-08-20T04:36:02.009Z,15
2016-08-20T04:37:01.977Z,15
2016-08-20T04:38:01.960Z,15
2016-08-20T04:39:01.913Z,20
2016-08-20T04:40:02.591Z,20
2016-08-20T04:41:01.862Z,20
2016-08-20T04:42:02.523Z,25
2016-08-20T04:43:02.487Z,25
2016-08-20T04:44:01.072Z,30
2016-08-20T04:45:01.734Z,30
2016-08-20T04:46:01.010Z,35
2016-08-20T04:47:02.357Z,35
2016-08-20T04:48:01.642Z,40
2016-08-20T04:49:01.610Z,40
2016-08-20T04:50:00.894Z,40
2016-08-20T04:51:00.160Z,40
2016-08-20T04:52:01.505Z,45
2016-08-20T04:53:01.483Z,50
2016-08-20T04:54:00.754Z,50
2016-08-20T04:55:01.425Z,55
2016-08-20T04:56:02.090Z,55
2016-08-20T04:57:01.364Z,60
2016-08-20T04:58:01.335Z,65
2016-08-20T04:59:00.604Z,70
2016-08-20T04:59:59.872Z,70
2016-08-20T05:01:00.547Z,75
2016-08-20T05:02:00.505Z,75
2016-08-20T05:03:00.470Z,75
2016-08-20T05:04:01.838Z,80
2016-08-20T05:05:01.131Z,85
2016-08-20T05:06:01.076Z,85
2016-08-20T05:07:01.071Z,85
2016-08-20T05:08:01.029Z,85
2016-08-20T05:09:00.294Z,90
2016-08-20T05:10:00.275Z,90
2016-08-20T05:11:00.919Z,90
2016-08-20T05:12:01.606Z,90
2016-08-20T05:13:00.862Z,90
2016-08-20T05:14:00.129Z,90
2016-08-20T05:15:01.498Z,95
2016-08-20T05:16:00.773Z,95
2016-08-20T05:17:00.049Z,100
2016-08-20T05:17:59.319Z,120
2016-08-20T05:19:00.683Z,170
2016-08-20T05:20:00.651Z,310
2016-08-20T05:21:00.632Z,355
2016-08-20T05:22:00.592Z,220
2016-08-20T05:23:01.261Z,245
2016-08-20T05:24:00.535Z,135
2016-08-20T05:25:00.500Z,140
2016-08-20T05:26:01.164Z,270
2016-08-20T05:27:01.133Z,405
2016-08-20T05:27:59.712Z,435
2016-08-20T05:29:00.374Z,455
2016-08-20T05:30:00.339Z,230
2016-08-20T05:30:59.619Z,165
2016-08-20T05:31:59.592Z,450
2016-08-20T05:33:00.256Z,420
2016-08-20T05:34:00.926Z,375
2016-08-20T05:35:00.190Z,165
2016-08-20T05:35:58.781Z,280
2016-08-20T05:36:59.439Z,155
2016-08-20T05:38:00.796Z,145
2016-08-20T05:38:58.685Z,145
2016-08-20T05:40:00.744Z,165
2016-08-20T05:41:00.730Z,175
2016-08-20T05:42:00.029Z,170
2016-08-20T05:42:59.968Z,165
2016-08-20T05:43:59.930Z,210
2016-08-20T05:44:59.899Z,265
2016-08-20T05:45:59.870Z,275
2016-08-20T05:46:59.845Z,355
2016-08-20T05:47:59.118Z,375
2016-08-20T05:49:00.473Z,310
2016-08-20T05:50:00.456Z,310
2016-08-20T05:51:00.422Z,425
2016-08-20T05:51:59.699Z,370
2016-08-20T05:53:00.368Z,335
2016-08-20T05:53:59.640Z,485
2016-08-20T05:54:58.919Z,735
2016-08-20T05:55:59.581Z,630
2016-08-20T05:56:58.857Z,690
2016-08-20T05:58:00.228Z,380
2016-08-20T05:58:58.806Z,250
2016-08-20T05:59:59.470Z,225
2016-08-20T06:00:58.752Z,205
2016-08-20T06:01:58.721Z,200
2016-08-20T06:02:59.407Z,200
2016-08-20T06:04:00.067Z,205
2016-08-20T06:04:59.336Z,190
2016-08-20T06:05:59.309Z,185
2016-08-20T06:06:58.583Z,190
2016-08-20T06:07:59.265Z,220
2016-08-20T06:08:58.547Z,730
2016-08-20T06:09:59.901Z,740
2016-08-20T06:10:59.175Z,745
2016-08-20T06:11:59.420Z,755
2016-08-20T06:12:59.115Z,785
2016-08-20T06:13:59.101Z,815
2016-08-20T06:14:59.063Z,845
2016-08-20T06:15:59.042Z,835
2016-08-20T06:16:58.315Z,835
2016-08-20T06:17:59.683Z,770
2016-08-20T06:18:59.647Z,780
2016-08-20T06:19:58.932Z,765
2016-08-20T06:20:58.922Z,795
2016-08-20T06:21:58.882Z,800
2016-08-20T06:22:58.860Z,825
2016-08-20T06:23:58.824Z,845
2016-08-20T06:24:58.108Z,835
2016-08-20T06:25:58.783Z,845
2016-08-20T06:26:58.750Z,905
2016-08-20T06:27:59.450Z,940
2016-08-20T06:28:57.315Z,950
2016-08-20T06:29:57.985Z,960
2016-08-20T06:30:58.657Z,980
2016-08-20T06:31:59.339Z,970
2016-08-20T06:32:59.326Z,970
2016-08-20T06:33:59.284Z,1045
2016-08-20T06:34:58.564Z,1035
2016-08-20T06:35:59.239Z,1010
2016-08-20T06:36:58.520Z,985
2016-08-20T06:37:58.507Z,920
2016-08-20T06:38:58.468Z,930
2016-08-20T06:39:59.144Z,995
2016-08-20T06:40:59.113Z,1085
2016-08-20T06:41:58.428Z,1140
2016-08-20T06:42:59.087Z,1160
2016-08-20T06:43:57.657Z,1215
2016-08-20T06:44:56.939Z,1245
2016-08-20T06:45:57.612Z,1235
2016-08-20T06:46:57.594Z,1280
2016-08-20T06:47:57.577Z,1185
2016-08-20T06:48:57.552Z,890
2016-08-20T06:49:57.541Z,865
2016-08-20T06:50:58.892Z,1025
2016-08-20T06:51:57.479Z,985
2016-08-20T06:52:58.165Z,920
2016-08-20T06:53:56.040Z,1085
2016-08-20T06:54:58.104Z,1120
2016-08-20T06:55:56.694Z,1105
2016-08-20T06:56:58.773Z,1240
2016-08-20T06:57:58.045Z,1270
2016-08-20T06:58:58.724Z,1310
2016-08-20T06:59:57.994Z,1335
2016-08-20T07:00:56.593Z,1355
2016-08-20T07:01:57.956Z,1370
2016-08-20T07:02:58.626Z,1340
2016-08-20T07:03:58.602Z,1410
2016-08-20T07:04:57.193Z,1435
2016-08-20T07:05:57.884Z,1475
2016-08-20T07:06:58.543Z,1545
2016-08-20T07:07:58.534Z,1550
2016-08-20T07:08:58.505Z,1185
2016-08-20T07:09:57.787Z,1305
2016-08-20T07:10:58.470Z,750
2016-08-20T07:11:57.049Z,675
2016-08-20T07:12:58.436Z,640
2016-08-20T07:13:57.698Z,640
2016-08-20T07:14:56.991Z,760
2016-08-20T07:15:58.360Z,735
2016-08-20T07:16:58.340Z,720
2016-08-20T07:17:57.630Z,955
2016-08-20T07:18:58.289Z,1470
2016-08-20T07:19:58.275Z,1575
2016-08-20T07:20:57.570Z,910
2016-08-20T07:21:56.842Z,1240
2016-08-20T07:22:57.516Z,1300
2016-08-20T07:23:57.507Z,1605
2016-08-20T07:24:57.481Z,875
2016-08-20T07:25:58.159Z,810
2016-08-20T07:26:57.441Z,600
2016-08-20T07:27:58.113Z,545
2016-08-20T07:28:58.105Z,1095
2016-08-20T07:29:56.681Z,635
2016-08-20T07:30:57.367Z,490
2016-08-20T07:31:58.031Z,485
2016-08-20T07:32:57.310Z,510
2016-08-20T07:33:57.303Z,545
2016-08-20T07:34:57.973Z,515
2016-08-20T07:35:57.263Z,505
2016-08-20T07:36:57.931Z,480
2016-08-20T07:37:57.906Z,430
2016-08-20T07:38:57.183Z,405
2016-08-20T07:39:57.167Z,385
2016-08-20T07:40:56.452Z,365
2016-08-20T07:41:56.437Z,355
2016-08-20T07:42:57.797Z,335
2016-08-20T07:43:57.776Z,320
2016-08-20T07:44:56.371Z,310
2016-08-20T07:45:57.027Z,310
2016-08-20T07:46:57.003Z,325
2016-08-20T07:47:57.695Z,335
2016-08-20T07:48:57.684Z,335
2016-08-20T07:49:56.940Z,325
2016-08-20T07:50:57.619Z,320
2016-08-20T07:51:56.911Z,330
2016-08-20T07:52:57.579Z,340
2016-08-20T07:53:57.560Z,340
2016-08-20T07:54:57.522Z,335
2016-08-20T07:55:57.514Z,340
2016-08-20T07:56:57.477Z,335
2016-08-20T07:57:57.458Z,335
2016-08-20T07:58:56.739Z,335
2016-08-20T07:59:56.718Z,325
2016-08-20T08:00:55.992Z,320
2016-08-20T08:01:56.659Z,310
2016-08-20T08:02:57.333Z,305
2016-08-20T08:03:57.312Z,310
2016-08-20T08:04:56.589Z,315
2016-08-20T08:05:57.258Z,325
2016-08-20T08:06:55.149Z,340
2016-08-20T08:07:56.515Z,345
2016-08-20T08:08:56.870Z,350
2016-08-20T08:09:56.463Z,365
2016-08-20T08:10:57.143Z,370
2016-08-20T08:11:57.114Z,375
2016-08-20T08:12:57.089Z,375
2016-08-20T08:13:55.669Z,375
2016-08-20T08:14:56.347Z,385
2016-08-20T08:15:57.014Z,395
2016-08-20T08:16:56.985Z,395
2016-08-20T08:17:55.567Z,385
2016-08-20T08:18:56.932Z,385
2016-08-20T08:19:56.915Z,400
2016-08-20T08:20:56.194Z,430
2016-08-20T08:21:56.866Z,460
2016-08-20T08:22:56.141Z,485
2016-08-20T08:23:56.819Z,490
2016-08-20T08:24:56.780Z,485
2016-08-20T08:25:56.763Z,465
2016-08-20T08:26:56.041Z,440
2016-08-20T08:27:55.326Z,430
2016-08-20T08:28:55.987Z,410
2016-08-20T08:29:55.977Z,395
2016-08-20T08:30:55.944Z,385
2016-08-20T08:31:56.635Z,375
2016-08-20T08:32:55.901Z,370
2016-08-20T08:33:56.562Z,355
2016-08-20T08:34:55.154Z,350
2016-08-20T08:35:54.418Z,350
2016-08-20T08:36:55.794Z,375
2016-08-20T08:37:55.080Z,395
2016-08-20T08:38:55.734Z,440
2016-08-20T08:39:54.326Z,480
2016-08-20T08:40:54.297Z,525
2016-08-20T08:41:54.976Z,585
2016-08-20T08:42:55.650Z,630
2016-08-20T08:43:55.631Z,710
2016-08-20T08:44:56.302Z,705
2016-08-20T08:45:56.272Z,925
2016-08-20T08:46:56.254Z,825
2016-08-20T08:47:54.830Z,985
2016-08-20T08:48:56.199Z,670
2016-08-20T08:49:54.075Z,645
2016-08-20T08:50:55.449Z,550
2016-08-20T08:51:55.431Z,520
2016-08-20T08:52:54.706Z,525
2016-08-20T08:53:55.390Z,540
2016-08-20T08:54:54.655Z,555
2016-08-20T08:55:55.328Z,515
2016-08-20T08:56:56.056Z,465
2016-08-20T08:57:55.975Z,425
2016-08-20T08:58:54.559Z,390
2016-08-20T08:59:55.235Z,370
2016-08-20T09:00:55.205Z,345
2016-08-20T09:01:54.488Z,325
2016-08-20T09:02:55.869Z,315
2016-08-20T09:03:55.130Z,295
2016-08-20T09:04:55.803Z,285
2016-08-20T09:05:55.783Z,280
2016-08-20T09:06:54.371Z,285
2016-08-20T09:07:55.036Z,305
2016-08-20T09:08:54.326Z,345
2016-08-20T09:09:54.995Z,355
2016-08-20T09:10:54.962Z,385
2016-08-20T09:11:54.252Z,390
2016-08-20T09:12:54.910Z,380
2016-08-20T09:13:54.194Z,380
2016-08-20T09:14:55.568Z,380
2016-08-20T09:15:55.549Z,445
2016-08-20T09:16:54.821Z,430
2016-08-20T09:17:54.814Z,400
2016-08-20T09:18:55.567Z,390
2016-08-20T09:19:54.044Z,385
2016-08-20T09:20:54.725Z,380
2016-08-20T09:21:54.699Z,375
2016-08-20T09:22:54.677Z,365
2016-08-20T09:23:54.656Z,355
2016-08-20T09:24:53.924Z,340
2016-08-20T09:25:55.293Z,320
2016-08-20T09:26:53.871Z,310
2016-08-20T09:27:53.859Z,290
2016-08-20T09:28:55.225Z,280
2016-08-20T09:29:54.502Z,265
2016-08-20T09:30:55.169Z,255
2016-08-20T09:31:54.446Z,240
2016-08-20T09:32:54.421Z,225
2016-08-20T09:33:54.414Z,210
2016-08-20T09:34:53.688Z,200
2016-08-20T09:35:54.347Z,190
2016-08-20T09:36:53.624Z,180
2016-08-20T09:37:55.011Z,170
2016-08-20T09:38:53.576Z,165
2016-08-20T09:39:53.551Z,165
2016-08-20T09:40:54.219Z,165
2016-08-20T09:41:54.888Z,165
2016-08-20T09:42:54.174Z,160
2016-08-20T09:43:54.151Z,155
2016-08-20T09:44:54.819Z,155
2016-08-20T09:45:54.099Z,155
2016-08-20T09:46:54.770Z,150
2016-08-20T09:47:54.046Z,150
2016-08-20T09:48:54.018Z,145
2016-08-20T09:49:54.693Z,140
2016-08-20T09:50:53.964Z,140
2016-08-20T09:51:53.948Z,145
2016-08-20T09:52:54.621Z,155
2016-08-20T09:53:54.583Z,165
2016-08-20T09:54:54.560Z,180
2016-08-20T09:55:54.532Z,180
2016-08-20T09:56:54.512Z,185
2016-08-20T09:57:52.392Z,185
2016-08-20T09:58:54.456Z,185
2016-08-20T09:59:54.431Z,180
2016-08-20T10:00:53.728Z,175
2016-08-20T10:01:52.988Z,165
2016-08-20T10:02:54.369Z,160
2016-08-20T10:03:53.625Z,155
2016-08-20T10:04:53.605Z,150
2016-08-20T10:05:53.575Z,150
2016-08-20T10:06:54.249Z,150
2016-08-20T10:07:53.527Z,145
2016-08-20T10:08:53.510Z,145
2016-08-20T10:09:54.182Z,145
2016-08-20T10:10:54.156Z,150
2016-08-20T10:11:53.431Z,150
2016-08-20T10:12:54.106Z,155
2016-08-20T10:13:54.066Z,155
2016-08-20T10:14:52.643Z,155
2016-08-20T10:15:54.011Z,155
2016-08-20T10:16:53.294Z,160
2016-08-20T10:17:53.260Z,165
2016-08-20T10:18:52.536Z,175
2016-08-20T10:19:53.911Z,190
2016-08-20T10:20:53.894Z,200
2016-08-20T10:21:53.154Z,210
2016-08-20T10:22:53.132Z,215
2016-08-20T10:23:53.801Z,220
2016-08-20T10:24:52.375Z,215
2016-08-20T10:25:53.746Z,210
2016-08-20T10:26:53.023Z,205
2016-08-20T10:27:52.292Z,200
2016-08-20T10:28:52.988Z,190
2016-08-20T10:29:51.549Z,190
2016-08-20T10:30:52.218Z,190
2016-08-20T10:31:52.192Z,190
2016-08-20T10:32:53.565Z,195
2016-08-20T10:33:52.139Z,195
2016-08-20T10:34:52.818Z,195
2016-08-20T10:35:52.798Z,200
2016-08-20T10:37:52.722Z,195
2016-08-20T10:38:53.406Z,195
2016-08-20T10:39:52.683Z,195
2016-08-20T10:40:53.349Z,195
2016-08-20T10:41:51.929Z,185
2016-08-20T10:42:53.300Z,175
2016-08-20T10:43:51.877Z,165
2016-08-20T10:44:53.245Z,155
2016-08-20T10:45:52.518Z,155
2016-08-20T10:46:51.097Z,150
2016-08-20T10:47:52.467Z,150
2016-08-20T10:48:53.137Z,150
2016-08-20T10:49:52.413Z,150
2016-08-20T10:50:52.379Z,150
2016-08-20T10:51:53.056Z,155
2016-08-20T10:52:52.333Z,155
2016-08-20T10:53:52.307Z,155
2016-08-20T10:54:52.967Z,160
2016-08-20T10:55:52.273Z,170
2016-08-20T10:56:52.216Z,175
2016-08-20T10:57:52.192Z,185
2016-08-20T10:58:52.868Z,190
2016-08-20T10:59:52.136Z,195
2016-08-20T11:00:52.113Z,205
2016-08-20T11:01:52.786Z,205
2016-08-20T11:02:50.664Z,210
2016-08-20T11:03:52.740Z,215
2016-08-20T11:04:50.614Z,220
2016-08-20T11:05:51.276Z,225
2016-08-20T11:06:52.650Z,230
2016-08-20T11:07:51.250Z,235
2016-08-20T11:08:51.896Z,240
2016-08-20T11:09:51.173Z,245
2016-08-20T11:10:50.452Z,245
2016-08-20T11:11:51.815Z,250
2016-08-20T11:12:51.091Z,250
2016-08-20T11:13:52.480Z,250
2016-08-20T11:14:51.736Z,250
2016-08-20T11:15:52.413Z,240
2016-08-20T11:16:50.985Z,235
2016-08-20T11:17:50.262Z,225
2016-08-20T11:18:52.327Z,215
2016-08-20T11:19:52.301Z,210
2016-08-20T11:20:51.576Z,200
2016-08-20T11:21:52.256Z,195
2016-08-20T11:22:51.521Z,190
2016-08-20T11:23:50.806Z,185
2016-08-20T11:24:51.474Z,180
2016-08-20T11:25:50.767Z,175
2016-08-20T11:26:51.414Z,175
2016-08-20T11:27:51.403Z,170
2016-08-20T11:28:50.667Z,170
2016-08-20T11:29:49.949Z,165
2016-08-20T11:30:51.302Z,165
2016-08-20T11:31:51.975Z,165
2016-08-20T11:32:50.564Z,170
2016-08-20T11:33:50.534Z,170
2016-08-20T11:34:51.201Z,175
2016-08-20T11:35:51.887Z,175
2016-08-20T11:36:51.147Z,175
2016-08-20T11:37:51.123Z,175
2016-08-20T11:38:51.105Z,175
2016-08-20T11:39:51.081Z,180
2016-08-20T11:40:51.749Z,180
2016-08-20T11:41:50.319Z,175
2016-08-20T11:42:50.293Z,170
2016-08-20T11:43:50.266Z,160
2016-08-20T11:44:50.948Z,150
2016-08-20T11:45:51.619Z,145
2016-08-20T11:46:50.883Z,145
2016-08-20T11:47:50.155Z,145
2016-08-20T11:48:51.514Z,145
2016-08-20T11:49:51.491Z,145
2016-08-20T11:50:50.774Z,140
2016-08-20T11:51:50.746Z,140
2016-08-20T11:52:50.733Z,140
2016-08-20T11:53:50.697Z,140
2016-08-20T11:54:51.360Z,140
2016-08-20T11:55:49.935Z,140
2016-08-20T11:56:50.713Z,145
2016-08-20T11:57:50.583Z,150
2016-08-20T11:58:50.558Z,160
2016-08-20T11:59:51.236Z,170
2016-08-20T12:00:49.807Z,180
2016-08-20T12:01:51.165Z,185
2016-08-20T12:02:51.137Z,185
2016-08-20T12:03:51.112Z,195
2016-08-20T12:04:50.385Z,205
2016-08-20T12:05:51.076Z,220
2016-08-20T12:06:50.341Z,235
2016-08-20T12:07:48.919Z,235
2016-08-20T12:08:49.584Z,230
2016-08-20T12:09:49.565Z,220
2016-08-20T12:10:50.233Z,210
2016-08-20T12:11:49.507Z,200
2016-08-20T12:12:50.872Z,190
2016-08-20T12:13:50.838Z,195
2016-08-20T12:14:49.429Z,200
2016-08-20T12:15:48.698Z,205
2016-08-20T12:16:50.761Z,210
2016-08-20T12:17:49.342Z,215
2016-08-20T12:18:49.319Z,220
2016-08-20T12:19:49.986Z,230
2016-08-20T12:20:50.659Z,245
2016-08-20T12:21:50.629Z,260
2016-08-20T12:22:50.591Z,265
2016-08-20T12:23:50.574Z,270
2016-08-20T12:24:50.545Z,265
2016-08-20T12:25:48.422Z,265
2016-08-20T12:26:49.796Z,270
2016-08-20T12:27:50.462Z,270
2016-08-20T12:28:49.746Z,265
2016-08-20T12:29:49.024Z,255
2016-08-20T12:30:48.995Z,245
2016-08-20T12:31:50.353Z,240
2016-08-20T12:32:48.941Z,230
2016-08-20T12:33:48.925Z,225
2016-08-20T12:34:48.880Z,220
2016-08-20T12:35:48.857Z,215
2016-08-20T12:36:50.236Z,215
2016-08-20T12:37:49.511Z,215
2016-08-20T12:38:50.179Z,215
2016-08-20T12:39:50.144Z,215
2016-08-20T12:40:50.124Z,210
2016-08-20T12:41:49.397Z,210
2016-08-20T12:42:48.666Z,205
2016-08-20T12:43:50.031Z,205
2016-08-20T12:44:49.306Z,205
2016-08-20T12:45:49.277Z,205
2016-08-20T12:46:49.257Z,205
2016-08-20T12:47:47.833Z,205
2016-08-20T12:48:49.894Z,210
2016-08-20T12:49:49.867Z,210
2016-08-20T12:50:49.333Z,205
2016-08-20T12:51:48.427Z,195
2016-08-20T12:52:49.788Z,190
2016-08-20T12:53:49.762Z,190
2016-08-20T12:54:49.041Z,190
2016-08-20T12:55:48.319Z,195
2016-08-20T12:56:48.987Z,200
2016-08-20T12:57:47.559Z,205
2016-08-20T12:58:48.932Z,205
2016-08-20T12:59:48.910Z,205
2016-08-20T13:00:48.181Z,205
2016-08-20T13:01:49.563Z,205
2016-08-20T13:02:49.512Z,205
2016-08-20T13:03:48.321Z,210
2016-08-20T13:04:48.073Z,220
2016-08-20T13:05:49.437Z,230
2016-08-20T13:06:48.019Z,240
2016-08-20T13:07:49.388Z,250
2016-08-20T13:08:47.261Z,255
2016-08-20T13:09:47.932Z,255
2016-08-20T13:10:46.516Z,250
2016-08-20T13:11:48.575Z,230
2016-08-20T13:12:47.162Z,210
2016-08-20T13:13:49.221Z,190
2016-08-20T13:14:48.493Z,175
2016-08-20T13:15:48.474Z,160
2016-08-20T13:16:47.746Z,155
2016-08-20T13:17:47.722Z,155
2016-08-20T13:18:47.694Z,160
2016-08-20T13:19:49.068Z,160
2016-08-20T13:20:48.338Z,160
2016-08-20T13:21:49.009Z,160
2016-08-20T13:22:48.978Z,155
2016-08-20T13:23:48.250Z,155
2016-08-20T13:24:48.920Z,155
2016-08-20T13:25:48.905Z,155
2016-08-20T13:26:48.874Z,150
2016-08-20T13:27:47.443Z,150
2016-08-20T13:28:48.113Z,145
2016-08-20T13:29:48.095Z,145
2016-08-20T13:30:48.759Z,150
2016-08-20T13:31:48.731Z,155
2016-08-20T13:32:48.702Z,155
2016-08-20T13:33:48.688Z,150
2016-08-20T13:34:48.642Z,145
2016-08-20T13:35:47.942Z,140
2016-08-20T13:36:47.194Z,140
2016-08-20T13:37:47.868Z,140
2016-08-20T13:38:47.147Z,135
2016-08-20T13:39:47.814Z,140
2016-08-20T13:40:48.477Z,145
2016-08-20T13:41:47.760Z,150
2016-08-20T13:42:47.724Z,155
2016-08-20T13:43:47.716Z,165
2016-08-20T13:44:47.673Z,170
2016-08-20T13:45:46.955Z,175
2016-08-20T13:46:46.924Z,175
2016-08-20T13:47:47.583Z,180
2016-08-20T13:48:46.868Z,180
2016-08-20T13:49:46.141Z,190
2016-08-20T13:50:47.503Z,190
2016-08-20T13:51:47.481Z,195
2016-08-20T13:52:47.452Z,200
2016-08-20T13:53:47.430Z,205
2016-08-20T13:54:46.016Z,205
2016-08-20T13:55:47.381Z,205
2016-08-20T13:56:47.346Z,205
2016-08-20T13:57:47.317Z,195
2016-08-20T13:58:46.590Z,190
2016-08-20T13:59:47.251Z,190
2016-08-20T14:00:47.925Z,185
2016-08-20T14:01:47.898Z,185
2016-08-20T14:02:47.179Z,185
2016-08-20T14:03:47.149Z,185
2016-08-20T14:04:45.729Z,190
2016-08-20T14:05:47.788Z,190